createdAt,value
2023-01-23T00:01:34.230Z,5.95
2023-01-23T00:04:02.554Z,6.60
2023-01-23T00:06:30.502Z,5.93
2023-01-23T00:08:58.290Z,4.20
2023-01-23T00:11:28.522Z,5.47
2023-01-23T00:13:57.825Z,5.95
2023-01-23T00:16:28.834Z,5.40
2023-01-23T00:18:56.813Z,5.22
2023-01-23T00:21:27.333Z,4.18
2023-01-23T00:23:56.905Z,5.18
2023-01-23T00:26:27.183Z,4.45
2023-01-23T00:28:55.791Z,5.10
2023-01-23T00:31:29.328Z,4.93
2023-01-23T00:33:59.389Z,5.75
2023-01-23T00:36:35.586Z,5.47
2023-01-23T00:39:04.620Z,4.25
2023-01-23T00:41:32.271Z,6.00
2023-01-23T00:43:59.681Z,5.47
2023-01-23T00:46:27.227Z,5.13
2023-01-23T00:48:54.699Z,4.72
2023-01-23T00:51:22.367Z,5.00
2023-01-23T00:53:50.326Z,5.70
2023-01-23T00:56:19.140Z,6.45
2023-01-23T00:58:46.649Z,5.10
2023-01-23T01:01:15.786Z,6.28
2023-01-23T01:03:47.032Z,5.72
2023-01-23T01:06:15.638Z,5.20
2023-01-23T01:08:43.174Z,6.03
2023-01-23T01:11:10.703Z,5.35
2023-01-23T01:13:38.271Z,6.38
2023-01-23T01:16:06.434Z,6.43
2023-01-23T01:18:36.300Z,5.60
2023-01-23T01:21:10.991Z,5.20
2023-01-23T01:23:39.037Z,6.10
2023-01-23T01:26:07.319Z,5.28
2023-01-23T01:28:38.056Z,5.70
2023-01-23T01:31:12.071Z,3.88
2023-01-23T01:33:41.352Z,5.00
2023-01-23T01:36:14.753Z,5.50
2023-01-23T01:38:42.499Z,6.40
2023-01-23T01:41:11.450Z,6.90
2023-01-23T01:43:39.104Z,6.50
2023-01-23T01:46:06.586Z,5.72
2023-01-23T01:48:42.993Z,5.45
2023-01-23T01:51:26.068Z,4.80
2023-01-23T01:54:24.502Z,5.28
2023-01-23T01:57:04.706Z,5.18
2023-01-23T01:59:38.493Z,4.95
2023-01-23T02:02:19.213Z,6.20
2023-01-23T02:04:49.672Z,6.05
2023-01-23T02:07:34.426Z,4.03
2023-01-23T02:10:04.753Z,5.07
2023-01-23T02:12:35.119Z,5.30
2023-01-23T02:15:06.307Z,5.22
2023-01-23T02:17:36.910Z,6.45
2023-01-23T02:20:20.885Z,5.53
2023-01-23T02:22:57.750Z,5.33
2023-01-23T02:25:40.256Z,6.20
2023-01-23T02:28:09.899Z,4.70
2023-01-23T02:30:42.562Z,6.57
2023-01-23T02:33:30.160Z,6.05
2023-01-23T02:35:58.677Z,5.50
2023-01-23T02:39:01.845Z,4.85
2023-01-23T02:41:35.828Z,6.00
2023-01-23T02:44:14.991Z,6.15
2023-01-23T02:46:45.045Z,5.25
2023-01-23T02:49:13.109Z,6.13
2023-01-23T02:51:40.608Z,5.65
2023-01-23T02:54:09.081Z,5.97
2023-01-23T02:56:36.574Z,5.05
2023-01-23T02:59:23.068Z,5.40
2023-01-23T03:01:51.555Z,6.63
2023-01-23T03:04:19.835Z,5.70
2023-01-23T03:06:47.611Z,5.60
2023-01-23T03:09:16.987Z,6.03
2023-01-23T03:11:47.398Z,6.32
2023-01-23T03:14:18.679Z,6.93
2023-01-23T03:16:50.365Z,4.60
2023-01-23T03:19:21.273Z,5.63
2023-01-23T03:21:49.775Z,4.63
2023-01-23T03:24:17.415Z,5.10
2023-01-23T03:26:47.737Z,3.28
2023-01-23T03:29:41.169Z,4.07
2023-01-23T03:32:13.827Z,5.00
2023-01-23T03:34:41.973Z,5.20
2023-01-23T03:37:11.381Z,5.97
2023-01-23T03:39:58.100Z,5.38
2023-01-23T03:42:29.092Z,6.07
2023-01-23T03:44:58.809Z,6.05
2023-01-23T03:47:29.909Z,5.07
2023-01-23T03:49:57.469Z,5.88
2023-01-23T03:52:25.099Z,6.13
2023-01-23T03:54:52.787Z,6.07
2023-01-23T03:57:20.430Z,6.18
2023-01-23T03:59:47.800Z,6.80
2023-01-23T04:02:17.107Z,6.22
2023-01-23T04:04:44.699Z,7.03
2023-01-23T04:07:12.421Z,5.28
2023-01-23T04:09:42.344Z,5.30
2023-01-23T04:12:09.875Z,5.80
2023-01-23T04:14:41.167Z,6.47
2023-01-23T04:17:09.245Z,5.10
2023-01-23T04:19:37.992Z,5.50
2023-01-23T04:22:05.593Z,5.65
2023-01-23T04:24:40.007Z,6.25
2023-01-23T04:27:07.628Z,5.70
2023-01-23T04:29:36.104Z,5.88
2023-01-23T04:32:04.863Z,5.78
2023-01-23T04:34:35.804Z,5.50
2023-01-23T04:37:03.374Z,4.88
2023-01-23T04:39:32.067Z,5.55
2023-01-23T04:41:59.811Z,6.28
2023-01-23T04:44:47.570Z,5.72
2023-01-23T04:47:33.565Z,5.32
2023-01-23T04:50:03.248Z,5.45
2023-01-23T04:52:34.003Z,5.85
2023-01-23T04:55:02.847Z,6.65
2023-01-23T04:57:32.802Z,6.25
2023-01-23T05:00:23.718Z,5.28
2023-01-23T05:02:52.057Z,6.95
2023-01-23T05:05:21.268Z,6.00
2023-01-23T05:07:51.815Z,4.88
2023-01-23T05:10:19.603Z,7.45
2023-01-23T05:12:48.999Z,6.75
2023-01-23T05:15:17.345Z,6.32
2023-01-23T05:17:46.880Z,6.97
2023-01-23T05:20:14.708Z,5.78
2023-01-23T05:22:52.516Z,5.70
2023-01-23T05:25:25.363Z,6.22
2023-01-23T05:27:54.153Z,6.75
2023-01-23T05:30:23.310Z,6.18
2023-01-23T05:32:54.376Z,4.95
2023-01-23T05:35:22.820Z,6.85
2023-01-23T05:37:51.564Z,8.20
2023-01-23T05:40:22.769Z,5.72
2023-01-23T05:43:22.296Z,7.30
2023-01-23T05:46:08.164Z,6.05
2023-01-23T05:48:50.312Z,6.38
2023-01-23T05:51:18.721Z,6.63
2023-01-23T05:53:46.311Z,6.60
2023-01-23T05:56:14.503Z,6.65
2023-01-23T05:59:15.659Z,6.82
2023-01-23T06:02:09.115Z,5.82
2023-01-23T06:05:02.552Z,5.70
2023-01-23T06:07:46.072Z,7.40
2023-01-23T06:10:14.111Z,5.97
2023-01-23T06:12:41.639Z,5.28
2023-01-23T06:15:09.995Z,6.43
2023-01-23T06:17:38.501Z,6.88
2023-01-23T06:20:06.687Z,6.00
2023-01-23T06:22:34.204Z,7.00
2023-01-23T06:27:36.802Z,5.15
2023-01-23T06:30:08.461Z,6.13
2023-01-23T06:32:44.536Z,6.22
2023-01-23T06:35:13.227Z,7.72
2023-01-23T06:37:43.141Z,5.93
2023-01-23T06:40:14.598Z,7.18
2023-01-23T06:42:51.039Z,7.97
2023-01-23T06:45:19.051Z,6.35
2023-01-23T06:47:47.193Z,6.35
2023-01-23T06:50:14.962Z,7.10
2023-01-23T06:52:42.349Z,6.70
2023-01-23T06:55:10.586Z,7.10
2023-01-23T06:57:38.794Z,7.13
2023-01-23T07:00:10.059Z,6.30
2023-01-23T07:02:39.987Z,6.88
2023-01-23T07:05:07.954Z,6.95
2023-01-23T07:07:35.883Z,7.55
2023-01-23T07:10:03.651Z,8.98
2023-01-23T07:12:31.085Z,6.63
2023-01-23T07:14:58.660Z,7.30
2023-01-23T07:17:35.808Z,6.53
2023-01-23T07:20:03.584Z,6.28
2023-01-23T07:22:32.390Z,8.95
2023-01-23T07:25:01.046Z,7.25
2023-01-23T07:27:28.638Z,7.38
2023-01-23T07:29:56.204Z,4.55
2023-01-23T07:32:23.702Z,8.10
2023-01-23T07:34:53.154Z,7.90
2023-01-23T07:37:20.891Z,6.35
2023-01-23T07:39:50.085Z,7.43
2023-01-23T07:42:20.539Z,6.45
2023-01-23T07:44:48.022Z,7.75
2023-01-23T07:47:16.131Z,6.90
2023-01-23T07:49:44.055Z,6.22
2023-01-23T07:52:11.858Z,7.00
2023-01-23T07:54:40.011Z,6.70
2023-01-23T07:57:11.633Z,6.82
2023-01-23T07:59:40.115Z,7.43
2023-01-23T08:02:11.805Z,7.13
2023-01-23T08:04:39.751Z,7.22
2023-01-23T08:07:07.354Z,6.80
2023-01-23T08:09:35.069Z,8.13
2023-01-23T08:12:02.549Z,7.82
2023-01-23T08:14:30.205Z,6.95
2023-01-23T08:16:57.733Z,7.97
2023-01-23T08:19:27.408Z,6.30
2023-01-23T08:21:57.327Z,7.35
2023-01-23T08:24:24.838Z,7.68
2023-01-23T08:26:52.331Z,8.60
2023-01-23T08:29:20.191Z,7.25
2023-01-23T08:31:48.063Z,7.10
2023-01-23T08:34:15.722Z,6.90
2023-01-23T08:36:43.235Z,7.70
2023-01-23T08:39:11.018Z,8.10
2023-01-23T08:41:38.561Z,8.25
2023-01-23T08:44:06.132Z,7.90
2023-01-23T08:46:33.852Z,8.20
2023-01-23T08:49:01.256Z,7.40
2023-01-23T08:51:30.022Z,6.53
2023-01-23T08:53:57.641Z,7.72
2023-01-23T08:56:25.774Z,7.93
2023-01-23T08:58:53.420Z,8.73
2023-01-23T09:01:23.416Z,6.45
2023-01-23T09:03:50.982Z,8.27
2023-01-23T09:06:20.649Z,7.40
2023-01-23T09:08:49.743Z,6.47
2023-01-23T09:11:18.596Z,8.60
2023-01-23T09:13:47.438Z,7.43
2023-01-23T09:16:15.369Z,7.43
2023-01-23T09:18:43.343Z,7.53
2023-01-23T09:21:13.948Z,7.90
2023-01-23T09:23:41.550Z,7.75
2023-01-23T09:26:11.471Z,8.02
2023-01-23T09:28:42.328Z,8.07
2023-01-23T09:31:12.534Z,9.07
2023-01-23T09:33:41.031Z,9.27
2023-01-23T09:36:09.588Z,8.73
2023-01-23T09:38:37.158Z,7.90
2023-01-23T09:41:20.099Z,7.30
2023-01-23T09:43:52.170Z,7.60
2023-01-23T09:46:55.143Z,8.68
2023-01-23T09:49:49.680Z,8.25
2023-01-23T09:52:23.589Z,7.57
2023-01-23T09:54:59.947Z,8.87
2023-01-23T09:57:41.308Z,7.05
2023-01-23T10:00:37.305Z,8.65
2023-01-23T10:03:12.977Z,7.43
2023-01-23T10:05:47.956Z,7.55
2023-01-23T10:08:54.040Z,7.25
2023-01-23T10:11:31.141Z,5.65
2023-01-23T10:14:17.474Z,8.25
2023-01-23T10:17:11.435Z,8.60
2023-01-23T10:20:08.352Z,8.43
2023-01-23T10:22:41.401Z,7.82
2023-01-23T10:25:33.139Z,8.32
2023-01-23T10:28:29.761Z,7.15
2023-01-23T10:31:01.285Z,8.10
2023-01-23T10:33:40.172Z,7.88
2023-01-23T10:36:24.012Z,9.52
2023-01-23T10:39:10.497Z,7.60
2023-01-23T10:41:39.264Z,7.75
2023-01-23T10:44:16.611Z,6.32
2023-01-23T10:46:50.909Z,8.57
2023-01-23T10:49:37.825Z,6.70
2023-01-23T10:52:25.875Z,8.07
2023-01-23T10:54:53.338Z,7.68
2023-01-23T10:57:23.649Z,5.47
2023-01-23T11:00:08.414Z,8.10
2023-01-23T11:02:38.360Z,9.15
2023-01-23T11:05:52.425Z,8.88
2023-01-23T11:08:32.392Z,8.00
2023-01-23T11:11:23.559Z,8.35
2023-01-23T11:14:13.881Z,7.72
2023-01-23T11:16:44.280Z,7.88
2023-01-23T11:19:19.432Z,8.38
2023-01-23T11:21:57.820Z,7.53
2023-01-23T11:24:38.342Z,7.25
2023-01-23T11:27:17.532Z,8.20
2023-01-23T11:30:04.382Z,6.88
2023-01-23T11:32:36.299Z,8.52
2023-01-23T11:35:21.920Z,8.60
2023-01-23T11:37:50.753Z,7.80
2023-01-23T11:40:21.554Z,8.13
2023-01-23T11:42:49.690Z,6.25
2023-01-23T11:45:57.722Z,7.35
2023-01-23T11:48:44.484Z,8.23
2023-01-23T11:51:38.597Z,7.82
2023-01-23T11:54:33.978Z,6.80
2023-01-23T11:57:35.309Z,6.88
2023-01-23T12:00:19.847Z,6.63
2023-01-23T12:02:53.578Z,7.00
2023-01-23T12:05:33.199Z,6.40
2023-01-23T12:08:19.653Z,7.00
2023-01-23T12:11:26.923Z,5.82
2023-01-23T12:14:21.084Z,7.32
2023-01-23T12:17:13.309Z,7.60
2023-01-23T12:20:03.538Z,7.53
2023-01-23T12:22:54.480Z,6.20
2023-01-23T12:25:40.761Z,5.22
2023-01-23T12:28:34.078Z,5.43
2023-01-23T12:31:29.710Z,6.30
2023-01-23T12:34:16.157Z,4.73
2023-01-23T12:37:19.373Z,6.05
2023-01-23T12:40:07.707Z,5.55
2023-01-23T12:42:41.504Z,5.75
2023-01-23T12:45:30.869Z,6.18
2023-01-23T12:48:18.300Z,6.22
2023-01-23T12:51:09.473Z,5.10
2023-01-23T12:53:40.841Z,6.15
2023-01-23T12:56:18.999Z,6.80
2023-01-23T12:59:16.007Z,5.05
2023-01-23T13:02:11.433Z,5.82
2023-01-23T13:07:41.860Z,6.60
2023-01-23T13:10:20.191Z,6.53
2023-01-23T13:12:49.177Z,6.70
2023-01-23T13:15:30.760Z,6.38
2023-01-23T13:18:28.054Z,5.72
2023-01-23T13:21:17.126Z,6.63
2023-01-23T13:23:45.200Z,6.13
2023-01-23T13:26:15.853Z,4.43
2023-01-23T13:29:04.366Z,5.90
2023-01-23T13:31:37.016Z,5.82
2023-01-23T13:34:25.252Z,6.40
2023-01-23T13:37:15.595Z,6.00
2023-01-23T13:40:18.599Z,6.30
2023-01-23T13:42:49.024Z,7.50
2023-01-23T13:45:27.631Z,7.10
2023-01-23T14:22:59.942Z,6.13
2023-01-23T14:25:27.454Z,5.95
2023-01-23T14:28:06.821Z,6.40
2023-01-23T14:30:34.384Z,6.50
2023-01-23T14:33:01.870Z,5.93
2023-01-23T14:35:33.303Z,6.45
2023-01-23T14:38:05.515Z,5.60
2023-01-23T14:40:49.484Z,6.50
2023-01-23T14:43:21.834Z,5.38
2023-01-23T14:46:01.121Z,5.63
2023-01-23T14:48:30.995Z,6.45
2023-01-23T14:51:07.472Z,6.43
2023-01-23T14:53:38.831Z,6.32
2023-01-23T14:56:10.643Z,6.00
2023-01-23T14:58:43.343Z,5.65
2023-01-23T15:01:13.575Z,4.82
2023-01-23T15:03:44.170Z,5.10
2023-01-23T15:06:23.277Z,4.93
2023-01-23T15:08:55.072Z,4.63
2023-01-23T15:11:37.768Z,4.10
2023-01-23T15:14:09.950Z,3.78
2023-01-23T15:16:38.642Z,4.03
2023-01-23T15:19:24.192Z,3.90
2023-01-23T15:22:06.482Z,4.18
2023-01-23T15:24:34.064Z,3.58
2023-01-23T15:27:23.909Z,5.13
2023-01-23T15:29:53.730Z,4.63
2023-01-23T15:32:28.747Z,4.93
2023-01-23T15:34:59.709Z,5.22
2023-01-23T15:37:28.550Z,4.40
2023-01-23T15:40:02.658Z,4.70
2023-01-23T15:42:35.454Z,4.63
2023-01-23T15:45:03.913Z,4.72
2023-01-23T15:47:37.808Z,4.78
2023-01-23T15:50:09.720Z,4.57
2023-01-23T15:52:53.551Z,5.13
2023-01-23T15:55:26.011Z,5.07
2023-01-23T15:57:57.148Z,4.93
2023-01-23T16:00:27.691Z,4.80
2023-01-23T16:02:57.765Z,5.32
2023-01-23T16:05:32.307Z,5.30
2023-01-23T16:08:03.552Z,5.18
2023-01-23T16:10:36.355Z,5.75
2023-01-23T16:13:04.311Z,5.53
2023-01-23T16:15:34.163Z,5.15
2023-01-23T16:18:04.708Z,4.35
2023-01-23T16:20:38.768Z,5.60
2023-01-23T16:23:21.311Z,4.30
2023-01-23T16:25:57.550Z,4.07
2023-01-23T16:28:27.134Z,4.13
2023-01-23T16:30:56.356Z,4.20
2023-01-23T16:33:24.415Z,5.40
2023-01-23T16:35:52.418Z,4.60
2023-01-23T16:38:23.544Z,4.90
2023-01-23T16:40:53.461Z,5.13
2023-01-23T16:43:22.634Z,5.18
2023-01-23T16:45:53.675Z,5.13
2023-01-23T16:48:28.463Z,4.80
2023-01-23T16:51:04.898Z,5.35
2023-01-23T16:53:40.637Z,6.07
2023-01-23T16:56:26.536Z,5.93
2023-01-23T16:58:54.298Z,5.78
2023-01-23T17:01:24.860Z,5.50
2023-01-23T17:04:04.437Z,4.93
2023-01-23T17:06:33.408Z,6.18
2023-01-23T17:09:01.117Z,5.65
2023-01-23T17:11:41.126Z,5.40
2023-01-23T17:14:15.689Z,5.80
2023-01-23T17:16:44.320Z,6.75
2023-01-23T17:19:33.834Z,5.53
2023-01-23T17:22:04.866Z,5.25
2023-01-23T17:24:32.645Z,5.30
2023-01-23T17:27:03.374Z,6.18
2023-01-23T17:29:30.927Z,6.32
2023-01-23T17:32:03.890Z,7.03
2023-01-23T17:34:45.088Z,6.30
2023-01-23T17:37:22.742Z,5.82
2023-01-23T17:39:50.488Z,6.15
2023-01-23T17:42:18.244Z,6.63
2023-01-23T17:44:45.881Z,6.50
2023-01-23T17:47:14.886Z,6.82
2023-01-23T17:49:49.795Z,7.05
2023-01-23T17:52:17.792Z,6.50
2023-01-23T17:54:45.555Z,6.60
2023-01-23T17:57:15.682Z,7.22
2023-01-23T17:59:43.266Z,6.10
2023-01-23T18:02:31.081Z,6.50
2023-01-23T18:04:59.776Z,6.30
2023-01-23T18:07:27.516Z,6.47
2023-01-23T18:09:56.296Z,6.40
2023-01-23T18:12:59.817Z,6.30
2023-01-23T18:15:43.533Z,6.72
2023-01-23T18:18:30.075Z,6.72
2023-01-23T18:20:59.950Z,7.18
2023-01-23T18:23:31.916Z,7.22
2023-01-23T18:26:31.205Z,6.82
2023-01-23T18:29:14.901Z,7.38
2023-01-23T18:32:01.291Z,7.00
2023-01-23T18:34:50.843Z,6.30
2023-01-23T18:37:28.881Z,7.05
2023-01-23T18:40:02.770Z,6.63
2023-01-23T18:42:42.197Z,7.07
2023-01-23T18:45:23.652Z,7.05
2023-01-23T18:47:55.422Z,7.68
2023-01-23T18:50:25.326Z,6.22
2023-01-23T18:53:18.813Z,7.28
2023-01-23T18:56:05.682Z,4.90
2023-01-23T18:58:50.284Z,6.65
2023-01-23T19:01:31.342Z,6.60
2023-01-23T19:04:00.603Z,6.63
2023-01-23T19:06:33.326Z,7.55
2023-01-23T19:09:01.784Z,6.28
2023-01-23T19:11:56.728Z,7.07
2023-01-23T19:14:30.271Z,7.43
2023-01-23T19:17:37.188Z,7.15
2023-01-23T19:20:24.858Z,7.07
2023-01-23T19:23:07.786Z,7.18
2023-01-23T19:25:35.813Z,6.90
2023-01-23T19:28:05.611Z,7.22
2023-01-23T19:30:33.396Z,7.80
2023-01-23T19:33:00.883Z,7.43
2023-01-23T19:35:28.591Z,6.70
2023-01-23T19:37:56.188Z,7.60
2023-01-23T19:40:25.186Z,7.22
2023-01-23T19:43:13.311Z,8.02
2023-01-23T19:45:42.305Z,7.90
2023-01-23T19:48:09.963Z,8.00
2023-01-23T19:50:37.725Z,7.18
2023-01-23T19:53:05.395Z,7.15
2023-01-23T19:55:35.991Z,8.63
2023-01-23T19:58:03.506Z,7.50
2023-01-23T20:00:33.224Z,8.05
2023-01-23T20:03:00.851Z,7.88
2023-01-23T20:08:18.729Z,7.22
2023-01-23T20:10:46.638Z,8.02
2023-01-23T20:13:22.783Z,6.47
2023-01-23T20:15:53.800Z,8.45
2023-01-23T20:18:26.271Z,7.82
2023-01-23T20:21:08.371Z,6.13
2023-01-23T20:23:36.320Z,8.32
2023-01-23T20:26:04.225Z,7.65
2023-01-23T20:28:34.243Z,8.90
2023-01-23T20:31:17.476Z,8.23
2023-01-23T20:34:18.757Z,8.23
2023-01-23T20:36:47.967Z,6.82
2023-01-23T20:42:27.333Z,9.30
2023-01-23T20:45:17.684Z,6.88
2023-01-23T20:47:48.111Z,7.65
2023-01-23T20:50:42.865Z,7.93
2023-01-23T20:53:50.080Z,7.25
2023-01-23T20:56:28.799Z,7.20
2023-01-23T20:59:24.572Z,8.35
2023-01-23T21:02:21.338Z,8.07
2023-01-23T21:04:49.902Z,8.18
2023-01-23T21:07:27.189Z,7.68
2023-01-23T21:27:53.313Z,7.80
2023-01-23T21:30:53.138Z,7.75
2023-01-23T21:49:26.048Z,6.82
2023-01-23T21:52:44.861Z,7.25
2023-01-23T21:55:34.719Z,8.40
2023-01-23T21:58:16.189Z,7.75
2023-01-23T22:04:37.279Z,8.00
2023-01-23T22:07:09.328Z,6.35
2023-01-23T22:09:42.912Z,7.47
2023-01-23T22:12:33.535Z,7.03
2023-01-23T22:15:32.121Z,7.13
2023-01-23T22:18:32.777Z,8.50
2023-01-23T22:21:48.792Z,7.70
2023-01-23T22:25:25.551Z,7.43
2023-01-23T22:28:30.496Z,7.63
2023-01-23T22:31:43.648Z,7.40
2023-01-23T22:35:57.118Z,7.18
2023-01-23T22:38:16.809Z,6.88
2023-01-23T22:41:55.944Z,7.85
2023-01-23T22:45:26.153Z,6.80
2023-01-23T22:52:47.070Z,7.35
2023-01-23T22:56:05.921Z,6.70
2023-01-23T22:59:10.205Z,7.13
2023-01-23T23:02:03.162Z,7.30
2023-01-23T23:04:55.360Z,6.72
2023-01-23T23:07:45.847Z,8.32
2023-01-23T23:10:31.935Z,6.97
2023-01-23T23:19:46.252Z,5.85
2023-01-23T23:24:21.057Z,6.50
2023-01-23T23:26:22.001Z,7.50
2023-01-23T23:29:24.176Z,6.13
2023-01-23T23:35:24.014Z,6.28
2023-01-23T23:42:19.983Z,7.45
2023-01-23T23:45:43.703Z,7.60
2023-01-23T23:52:16.399Z,7.22
2023-01-23T23:55:35.488Z,5.30
2023-01-23T23:58:24.281Z,7.22
